Time;durP1;ratioP1;P1;durP2;ratioP2;P2;SDS_P1;SDS_P2;PMS_P1;PMS_P2;Temp;Humidity;BMP_temperature;BMP_pressure;BME280_temperature;BME280_humidity;BME280_pressure;Samples;Min_cycle;Max_cycle;Signal;HPM_P1;HPM_P2
2022/04/19 00:01:10;;;;;;;6.68;6.00;;;9.50;89.90;;;;;;5039323;28;20029;-48
2022/04/19 00:03:36;;;;;;;5.80;5.18;;;9.50;89.70;;;;;;5051135;28;20151;-48
2022/04/19 00:06:02;;;;;;;7.35;5.85;;;9.40;87.90;;;;;;5047245;28;20060;-48
2022/04/19 00:08:28;;;;;;;5.90;5.38;;;9.40;89.20;;;;;;5049922;28;20037;-48
2022/04/19 00:10:53;;;;;;;6.30;5.80;;;9.40;90.80;;;;;;5037622;28;20507;-48
2022/04/19 00:13:20;;;;;;;7.55;5.93;;;9.40;90.90;;;;;;5035013;28;20482;-48
2022/04/19 00:15:46;;;;;;;;;;;9.30;90.10;;;;;;5035501;28;20041;-48
2022/04/19 00:18:12;;;;;;;8.88;6.88;;;9.20;90.70;;;;;;5032038;28;19979;-48
2022/04/19 00:20:39;;;;;;;8.05;6.30;;;9.10;91.20;;;;;;5048115;28;20489;-48
2022/04/19 00:23:12;;;;;;;8.23;6.65;;;9.20;92.00;;;;;;5047966;28;20039;-49
2022/04/19 00:25:39;;;;;;;6.88;5.72;;;9.20;91.20;;;;;;5048039;28;20045;-49
2022/04/19 00:28:04;;;;;;;6.93;6.15;;;9.20;91.40;;;;;;5046798;28;20036;-47
2022/04/19 00:30:30;;;;;;;7.53;5.80;;;9.20;91.00;;;;;;5041821;28;20401;-48
2022/04/19 00:32:55;;;;;;;10.50;6.30;;;9.20;90.00;;;;;;5048046;28;20506;-48
2022/04/19 00:35:21;;;;;;;7.63;5.90;;;9.20;90.80;;;;;;5049709;28;20418;-49
2022/04/19 00:37:47;;;;;;;6.10;5.40;;;9.20;90.30;;;;;;5036408;28;20045;-48
2022/04/19 00:40:13;;;;;;;6.40;5.78;;;9.20;90.00;;;;;;5030276;28;20064;-48
2022/04/19 00:42:38;;;;;;;8.23;5.47;;;9.20;90.80;;;;;;5037414;28;20067;-49
2022/04/19 00:45:05;;;;;;;9.10;5.43;;;9.20;90.90;;;;;;5049405;28;20049;-48
2022/04/19 00:47:32;;;;;;;12.35;5.80;;;9.30;91.10;;;;;;5047457;28;20033;-48
2022/04/19 00:50:01;;;;;;;8.07;5.50;;;9.30;91.40;;;;;;5043774;28;20037;-49
2022/04/19 00:52:30;;;;;;;8.02;5.80;;;9.30;90.50;;;;;;5038562;28;20543;-48
2022/04/19 00:54:57;;;;;;;7.85;5.53;;;9.30;90.50;;;;;;5035533;28;20051;-49
2022/04/19 00:57:24;;;;;;;7.68;5.47;;;9.20;90.60;;;;;;5048655;28;20037;-47
2022/04/19 00:59:53;;;;;;;10.95;6.50;;;9.10;90.30;;;;;;5038777;28;20037;-48
2022/04/19 01:02:19;;;;;;;7.00;5.07;;;9.00;90.20;;;;;;5049641;28;20047;-48
2022/04/19 01:04:45;;;;;;;9.05;6.55;;;8.90;90.40;;;;;;5044693;28;20029;-47
2022/04/19 01:07:11;;;;;;;7.30;5.47;;;8.80;90.40;;;;;;5039153;28;20041;-48
2022/04/19 01:09:37;;;;;;;8.40;6.40;;;8.80;91.00;;;;;;5047092;28;20049;-48
2022/04/19 01:14:49;;;;;;;7.47;6.65;;;8.70;90.90;;;;;;5047039;28;20518;-48
2022/04/19 01:17:15;;;;;;;9.10;6.53;;;8.70;91.20;;;;;;5049387;28;20072;-48
2022/04/19 01:19:41;;;;;;;6.97;6.03;;;8.70;91.30;;;;;;5047978;28;20110;-48
2022/04/19 01:22:07;;;;;;;8.18;5.72;;;8.70;91.60;;;;;;5034630;28;20041;-48
2022/04/19 01:24:34;;;;;;;9.68;6.90;;;8.70;91.40;;;;;;5030001;28;20069;-48
2022/04/19 01:27:00;;;;;;;9.75;6.32;;;8.80;91.80;;;;;;5031075;28;20071;-48
2022/04/19 01:29:27;;;;;;;7.43;6.53;;;8.80;89.90;;;;;;5031201;28;20045;-48
2022/04/19 01:31:54;;;;;;;9.82;6.32;;;8.80;90.60;;;;;;5040497;28;20065;-48
2022/04/19 01:34:19;;;;;;;;;;;8.70;90.80;;;;;;5033034;28;20726;-49
2022/04/19 01:36:45;;;;;;;6.78;5.90;;;8.70;91.10;;;;;;5034424;28;20008;-48
2022/04/19 01:39:11;;;;;;;11.65;7.40;;;8.70;92.00;;;;;;5041850;28;20037;-47
2022/04/19 01:41:38;;;;;;;10.38;6.55;;;8.80;91.80;;;;;;5032530;28;20112;-48
2022/04/19 01:44:06;;;;;;;10.55;6.47;;;8.80;92.00;;;;;;5044065;28;20049;-47
2022/04/19 01:46:32;;;;;;;5.50;4.93;;;8.80;91.00;;;;;;5045845;28;20041;-48
2022/04/19 01:48:58;;;;;;;5.90;5.27;;;8.80;91.40;;;;;;5029247;28;20084;-48
2022/04/19 01:51:24;;;;;;;7.45;6.63;;;8.80;91.50;;;;;;5038740;28;20110;-48
2022/04/19 01:53:51;;;;;;;8.23;6.57;;;8.80;91.70;;;;;;5031212;28;20038;-48
2022/04/19 01:56:16;;;;;;;7.88;6.60;;;8.70;91.50;;;;;;5029318;28;20037;-47
2022/04/19 01:58:42;;;;;;;10.30;6.32;;;8.70;91.20;;;;;;5029384;28;20030;-47
2022/04/19 02:01:08;;;;;;;13.65;6.38;;;8.70;91.50;;;;;;5031048;28;20045;-47
2022/04/19 02:03:34;;;;;;;10.52;6.45;;;8.60;91.50;;;;;;5036572;28;20046;-49
2022/04/19 02:06:00;;;;;;;6.78;5.22;;;8.50;91.70;;;;;;5029103;28;20064;-48
2022/04/19 02:08:27;;;;;;;5.65;4.55;;;8.40;92.20;;;;;;5029417;28;20061;-46
2022/04/19 02:10:52;;;;;;;6.53;5.13;;;8.20;91.70;;;;;;5030972;28;20052;-48
2022/04/19 02:13:19;;;;;;;10.48;6.57;;;8.10;92.30;;;;;;5034111;28;20040;-47
2022/04/19 02:15:46;;;;;;;16.55;7.47;;;8.10;93.10;;;;;;5048225;28;20513;-47
2022/04/19 02:18:12;;;;;;;11.77;8.07;;;8.10;92.40;;;;;;5030796;28;20038;-48
2022/04/19 02:20:37;;;;;;;10.75;7.97;;;8.00;92.30;;;;;;5030800;28;20034;-47
2022/04/19 02:23:03;;;;;;;11.60;8.30;;;8.10;92.70;;;;;;5028586;28;20045;-47
2022/04/19 02:25:29;;;;;;;13.75;9.15;;;8.10;93.00;;;;;;5045733;28;20033;-47
2022/04/19 02:27:55;;;;;;;13.75;9.65;;;8.10;92.90;;;;;;5048063;28;20111;-47
2022/04/19 02:30:21;;;;;;;9.48;6.82;;;8.10;92.80;;;;;;5051159;28;20037;-48
2022/04/19 02:32:48;;;;;;;9.77;8.00;;;8.00;92.10;;;;;;5048475;28;20059;-49
2022/04/19 02:35:18;;;;;;;11.48;7.65;;;7.90;92.30;;;;;;5050709;28;20049;-48
2022/04/19 02:37:54;;;;;;;9.73;8.20;;;7.80;92.40;;;;;;5051892;28;20045;-47
2022/04/19 02:40:21;;;;;;;12.90;9.23;;;7.70;93.10;;;;;;5052464;28;20047;-47
2022/04/19 02:42:49;;;;;;;11.98;8.95;;;7.70;93.80;;;;;;5050033;28;20525;-48
2022/04/19 02:45:14;;;;;;;9.38;7.40;;;7.60;94.00;;;;;;5043181;28;20051;-48
2022/04/19 02:47:41;;;;;;;10.00;7.60;;;7.70;93.60;;;;;;5032727;28;20142;-48
2022/04/19 02:50:07;;;;;;;15.48;8.70;;;7.50;92.90;;;;;;5041327;28;20525;-47
2022/04/19 02:52:33;;;;;;;10.35;6.95;;;7.50;93.40;;;;;;5049684;28;20132;-47
2022/04/19 02:54:58;;;;;;;13.07;8.27;;;7.50;94.00;;;;;;5043060;28;20116;-48
2022/04/19 02:57:24;;;;;;;13.17;9.03;;;7.40;93.50;;;;;;5035198;28;20125;-48
2022/04/19 02:59:50;;;;;;;12.77;8.67;;;7.40;94.30;;;;;;5041257;28;20199;-48
2022/04/19 03:02:18;;;;;;;11.57;9.05;;;7.40;94.30;;;;;;5046872;28;20033;-47
2022/04/19 03:04:43;;;;;;;13.02;8.40;;;7.50;94.90;;;;;;5038453;28;20045;-47
2022/04/19 03:07:09;;;;;;;16.90;9.57;;;7.50;94.50;;;;;;5051525;28;20082;-48
2022/04/19 03:09:35;;;;;;;15.13;9.53;;;7.60;94.90;;;;;;5052340;28;20378;-47
2022/04/19 03:12:00;;;;;;;13.87;9.17;;;7.60;94.90;;;;;;5051473;28;20526;-46
2022/04/19 03:14:26;;;;;;;10.97;9.70;;;7.60;94.50;;;;;;5036999;28;20111;-48
2022/04/19 03:16:52;;;;;;;17.70;10.30;;;7.60;95.20;;;;;;5037133;28;20076;-48
2022/04/19 03:19:18;;;;;;;17.45;11.18;;;7.60;95.50;;;;;;5049338;28;20041;-48
2022/04/19 03:21:43;;;;;;;13.13;10.57;;;7.60;94.90;;;;;;5037091;28;20056;-47
2022/04/19 03:29:39;;;;;;;18.95;11.02;;;7.60;94.70;;;;;;5032029;28;20045;-48
2022/04/19 03:32:05;;;;;;;17.30;10.50;;;7.60;94.40;;;;;;5032035;28;20038;-51
2022/04/19 03:34:30;;;;;;;16.88;12.00;;;7.70;94.70;;;;;;5037806;28;20045;-48
2022/04/19 03:36:56;;;;;;;15.53;11.03;;;7.70;92.70;;;;;;5045048;28;20033;-47
2022/04/19 03:39:21;;;;;;;17.13;11.17;;;7.60;92.60;;;;;;5031008;28;20126;-47
2022/04/19 03:41:47;;;;;;;12.33;10.50;;;7.60;93.40;;;;;;5031259;28;20041;-47
2022/04/19 03:44:12;;;;;;;13.40;6.97;;;7.60;93.20;;;;;;5032983;28;20029;-48
2022/04/19 03:49:24;;;;;;;13.52;10.43;;;7.60;94.40;;;;;;5031645;28;20068;-48
2022/04/19 03:51:50;;;;;;;14.65;10.43;;;7.60;93.50;;;;;;5029940;28;20101;-47
2022/04/19 03:54:16;;;;;;;17.30;10.80;;;7.60;94.20;;;;;;5040782;28;20083;-47
2022/04/19 03:56:42;;;;;;;17.05;12.05;;;7.50;94.60;;;;;;5036660;28;20116;-48
2022/04/19 03:59:09;;;;;;;17.53;10.00;;;7.60;94.10;;;;;;5041723;28;20137;-47
2022/04/19 04:01:37;;;;;;;16.13;10.80;;;7.60;94.10;;;;;;5030645;28;20507;-47
2022/04/19 04:04:03;;;;;;;17.25;12.48;;;7.50;93.60;;;;;;5034900;28;20258;-50
2022/04/19 04:06:28;;;;;;;20.02;11.45;;;7.50;92.80;;;;;;5032812;28;20045;-50
2022/04/19 04:08:54;;;;;;;13.60;10.43;;;7.50;93.30;;;;;;5031464;28;20092;-48
2022/04/19 04:11:20;;;;;;;14.10;9.80;;;7.40;93.60;;;;;;5031170;28;20045;-47
2022/04/19 04:13:45;;;;;;;14.75;10.60;;;7.40;93.70;;;;;;5031158;28;20049;-47
2022/04/19 04:16:11;;;;;;;15.03;11.27;;;7.20;93.80;;;;;;5038750;28;20041;-48
2022/04/19 04:18:39;;;;;;;14.37;10.80;;;7.10;94.00;;;;;;5031986;28;20034;-48
2022/04/19 04:21:05;;;;;;;11.98;9.40;;;7.00;94.60;;;;;;5031561;28;20052;-50
2022/04/19 04:23:33;;;;;;;16.30;10.37;;;6.90;94.90;;;;;;5031345;28;20415;-47
2022/04/19 04:25:59;;;;;;;13.25;10.23;;;6.80;95.00;;;;;;5030738;28;20033;-46
2022/04/19 04:28:24;;;;;;;17.00;10.43;;;6.80;95.40;;;;;;5034162;28;20072;-47
2022/04/19 04:30:50;;;;;;;16.63;11.90;;;6.80;95.80;;;;;;5034456;28;20044;-47
2022/04/19 04:33:16;;;;;;;16.97;12.40;;;6.80;95.50;;;;;;5047909;28;20072;-47
2022/04/19 04:35:41;;;;;;;17.70;12.40;;;6.80;95.80;;;;;;5037302;28;20100;-48
2022/04/19 04:38:07;;;;;;;25.90;11.83;;;6.80;95.80;;;;;;5041202;28;20060;-48
2022/04/19 04:40:33;;;;;;;13.85;11.45;;;6.80;95.60;;;;;;5043148;28;20295;-47
2022/04/19 04:42:58;;;;;;;21.33;12.83;;;6.90;95.90;;;;;;5030649;28;20088;-47
2022/04/19 04:45:25;;;;;;;18.13;12.38;;;6.90;96.00;;;;;;5045600;28;20037;-47
2022/04/19 04:50:35;;;;;;;13.27;10.48;;;6.90;96.10;;;;;;5046762;28;19923;-47
2022/04/19 04:53:00;;;;;;;16.80;12.50;;;7.00;96.50;;;;;;5033565;28;20116;-46
2022/04/19 04:55:26;;;;;;;15.37;11.17;;;7.00;96.10;;;;;;5029833;28;20053;-48
2022/04/19 04:57:56;;;;;;;17.40;11.30;;;7.00;96.30;;;;;;5038628;28;20082;-47
2022/04/19 05:00:22;;;;;;;21.45;11.95;;;7.00;96.30;;;;;;5031864;28;20042;-48
2022/04/19 05:02:47;;;;;;;20.65;11.52;;;7.00;96.60;;;;;;5029556;28;20043;-47
2022/04/19 05:05:13;;;;;;;17.07;11.37;;;7.00;96.40;;;;;;5048547;28;20045;-47
2022/04/19 05:07:38;;;;;;;15.70;11.40;;;7.00;96.10;;;;;;5045684;28;20064;-48
2022/04/19 05:10:05;;;;;;;16.77;10.93;;;7.00;95.90;;;;;;5032616;28;20037;-47
2022/04/19 05:12:31;;;;;;;18.17;11.88;;;7.00;96.10;;;;;;5038417;28;20040;-47
2022/04/19 05:14:57;;;;;;;14.93;11.60;;;6.90;96.20;;;;;;5048065;28;20516;-48
2022/04/19 05:17:22;;;;;;;16.60;11.23;;;7.00;96.70;;;;;;5049462;28;20052;-47
2022/04/19 05:19:48;;;;;;;17.10;11.33;;;7.00;96.80;;;;;;5031436;28;20048;-48
2022/04/19 05:22:13;;;;;;;15.40;10.13;;;7.00;96.60;;;;;;5043197;28;20124;-47
2022/04/19 05:24:39;;;;;;;15.90;11.40;;;7.10;97.00;;;;;;5048999;28;20437;-47
2022/04/19 05:27:04;;;;;;;15.10;11.10;;;7.20;97.20;;;;;;5031081;28;20041;-51
2022/04/19 05:29:30;;;;;;;16.17;10.73;;;7.20;97.50;;;;;;5040908;28;20067;-47
2022/04/19 05:31:55;;;;;;;14.83;9.97;;;7.30;97.50;;;;;;5040116;28;20060;-48
2022/04/19 05:34:21;;;;;;;15.27;11.10;;;7.40;97.70;;;;;;5042945;28;20132;-48
2022/04/19 05:36:47;;;;;;;35.83;11.70;;;7.50;97.20;;;;;;5042989;28;20034;-48
2022/04/19 05:39:12;;;;;;;15.80;10.47;;;7.60;97.10;;;;;;5040580;28;20822;-47
2022/04/19 05:41:39;;;;;;;18.80;9.17;;;7.70;97.00;;;;;;5029542;28;20038;-47
2022/04/19 05:44:06;;;;;;;17.48;10.18;;;7.80;96.40;;;;;;5032161;28;20052;-47
2022/04/19 05:46:31;;;;;;;22.90;10.20;;;7.90;96.30;;;;;;5031780;28;20142;-48
2022/04/19 05:48:57;;;;;;;18.23;10.47;;;8.00;96.50;;;;;;5030789;28;20526;-49
2022/04/19 05:51:23;;;;;;;16.43;9.07;;;8.10;96.60;;;;;;5049392;28;20041;-48
2022/04/19 05:53:48;;;;;;;12.03;9.30;;;8.20;96.40;;;;;;5046668;28;20402;-47
2022/04/19 05:56:14;;;;;;;22.23;9.17;;;8.20;95.80;;;;;;5048591;28;20448;-48
2022/04/19 05:58:39;;;;;;;30.57;9.63;;;8.30;96.10;;;;;;5048175;28;20052;-49
2022/04/19 06:01:06;;;;;;;11.93;8.23;;;8.40;95.90;;;;;;5044083;28;20116;-47
2022/04/19 06:06:16;;;;;;;11.38;8.82;;;8.60;97.00;;;;;;5049419;28;20377;-47
2022/04/19 06:08:43;;;;;;;9.77;7.93;;;8.70;96.30;;;;;;5050978;28;20037;-47
2022/04/19 06:11:12;;;;;;;15.23;7.78;;;8.80;96.60;;;;;;5050300;28;20359;-48
2022/04/19 06:13:37;;;;;;;17.55;9.73;;;8.90;96.30;;;;;;5044855;28;20119;-47
2022/04/19 06:16:04;;;;;;;9.93;7.97;;;9.00;96.20;;;;;;5047857;28;20124;-52
2022/04/19 06:18:30;;;;;;;13.27;8.15;;;9.10;96.50;;;;;;5039697;28;20068;-48
2022/04/19 06:20:55;;;;;;;13.77;8.10;;;9.20;96.10;;;;;;5043672;28;20541;-47
2022/04/19 06:23:21;;;;;;;10.07;6.00;;;9.30;96.40;;;;;;5038735;28;20044;-48
2022/04/19 06:25:46;;;;;;;19.07;6.40;;;9.50;96.10;;;;;;5032910;28;20037;-50
2022/04/19 06:28:12;;;;;;;10.33;6.73;;;9.60;96.40;;;;;;5032919;28;20033;-48
2022/04/19 06:30:37;;;;;;;8.30;6.73;;;9.70;96.00;;;;;;5042139;28;20044;-49
2022/04/19 06:33:03;;;;;;;152.73;18.47;;;9.80;95.40;;;;;;5036804;28;20296;-48
2022/04/19 06:35:29;;;;;;;15.17;7.10;;;9.90;95.50;;;;;;5034067;28;20376;-48
2022/04/19 06:37:54;;;;;;;19.80;7.80;;;10.10;95.50;;;;;;5040495;28;20571;-49
2022/04/19 06:40:20;;;;;;;20.37;6.30;;;10.10;94.80;;;;;;5050324;28;20480;-48
2022/04/19 06:42:45;;;;;;;18.07;7.27;;;10.30;94.50;;;;;;5052712;28;20306;-49
2022/04/19 06:45:11;;;;;;;13.50;7.17;;;10.30;94.10;;;;;;5049902;28;20506;-48
2022/04/19 06:47:38;;;;;;;25.95;7.95;;;10.40;94.50;;;;;;5050574;28;20104;-47
2022/04/19 06:50:03;;;;;;;;;;;10.60;94.60;;;;;;5044267;28;20106;-48
2022/04/19 06:52:29;;;;;;;12.65;6.03;;;10.60;93.80;;;;;;5039073;28;19916;-48
2022/04/19 06:54:55;;;;;;;9.43;6.00;;;10.70;94.00;;;;;;5046521;28;20041;-47
2022/04/19 06:57:20;;;;;;;10.50;5.90;;;10.80;93.60;;;;;;5034422;28;20033;-47
2022/04/19 06:59:46;;;;;;;9.97;6.33;;;10.90;94.10;;;;;;5039283;28;20123;-50
2022/04/19 07:02:12;;;;;;;32.17;7.63;;;11.00;93.80;;;;;;5037419;28;20037;-47
2022/04/19 07:04:39;;;;;;;12.68;6.38;;;11.10;93.60;;;;;;5032166;28;20098;-47
2022/04/19 07:07:06;;;;;;;21.02;6.45;;;11.20;92.70;;;;;;5036414;28;20041;-48
2022/04/19 07:09:31;;;;;;;6.03;5.43;;;11.30;93.00;;;;;;5031927;28;20045;-47
2022/04/19 07:11:57;;;;;;;24.73;7.30;;;11.40;92.90;;;;;;5038589;28;20289;-47
2022/04/19 07:14:23;;;;;;;12.63;6.77;;;11.50;92.70;;;;;;5033318;28;20037;-49
2022/04/19 07:16:48;;;;;;;15.73;7.73;;;11.60;92.50;;;;;;5041916;28;20033;-48
2022/04/19 07:19:14;;;;;;;13.95;7.90;;;11.60;92.20;;;;;;5052013;28;20041;-47
2022/04/19 07:27:08;;;;;;;10.60;6.88;;;11.90;92.00;;;;;;5047057;28;20053;-51
2022/04/19 07:29:33;;;;;;;9.63;7.03;;;12.00;91.10;;;;;;5044318;28;20037;-49
2022/04/19 07:31:59;;;;;;;13.67;7.27;;;12.00;91.60;;;;;;5036167;28;20041;-47
2022/04/19 07:34:25;;;;;;;8.25;6.75;;;12.10;91.30;;;;;;5034189;28;20045;-48
2022/04/19 07:36:50;;;;;;;7.30;5.93;;;12.20;91.40;;;;;;5030285;28;20028;-48
2022/04/19 07:39:17;;;;;;;9.00;6.23;;;12.30;90.90;;;;;;5043724;28;20048;-49
2022/04/19 07:41:47;;;;;;;8.60;5.88;;;12.40;90.50;;;;;;5027333;28;20313;-48
2022/04/19 07:44:15;;;;;;;7.97;5.72;;;12.50;90.60;;;;;;5030874;28;20067;-48
2022/04/19 07:46:42;;;;;;;10.10;5.88;;;12.60;90.50;;;;;;5036545;28;20139;-49
2022/04/19 07:49:08;;;;;;;5.82;4.88;;;12.70;90.70;;;;;;5044642;28;20068;-48
2022/04/19 07:51:35;;;;;;;10.38;6.47;;;12.80;90.10;;;;;;5034954;28;20076;-48
2022/04/19 07:54:00;;;;;;;14.07;5.65;;;12.90;90.20;;;;;;5030244;28;20036;-49
2022/04/19 07:56:26;;;;;;;15.35;6.75;;;13.00;90.00;;;;;;5037047;28;20036;-49
2022/04/19 07:58:52;;;;;;;8.02;5.55;;;13.10;90.20;;;;;;5027970;28;20466;-47
2022/04/19 08:01:18;;;;;;;6.20;4.95;;;13.20;89.20;;;;;;5029016;28;20538;-47
2022/04/19 08:03:44;;;;;;;7.25;5.43;;;13.40;88.80;;;;;;5036956;28;20403;-47
2022/04/19 08:06:10;;;;;;;5.65;4.95;;;13.40;88.10;;;;;;5024730;28;20036;-48
2022/04/19 08:08:36;;;;;;;6.55;5.38;;;13.60;89.10;;;;;;5029268;28;20472;-48
2022/04/19 08:11:03;;;;;;;5.72;5.13;;;13.70;89.20;;;;;;5042849;28;20048;-47
2022/04/19 08:13:29;;;;;;;7.75;6.00;;;13.80;88.10;;;;;;5028085;28;20064;-48
2022/04/19 08:15:54;;;;;;;7.68;5.40;;;13.90;88.70;;;;;;5027535;28;20037;-48
2022/04/19 08:18:21;;;;;;;8.17;4.80;;;14.10;86.60;;;;;;5034244;28;20068;-50
2022/04/19 08:20:47;;;;;;;5.78;4.72;;;14.10;86.70;;;;;;5031202;28;20531;-48
2022/04/19 08:23:13;;;;;;;8.40;5.32;;;14.20;86.60;;;;;;5031539;28;20033;-48
2022/04/19 08:25:40;;;;;;;16.15;5.32;;;14.20;86.70;;;;;;5034427;28;20037;-48
2022/04/19 08:28:06;;;;;;;8.50;5.45;;;14.30;86.00;;;;;;5040470;28;20040;-51
2022/04/19 08:30:32;;;;;;;;;;;14.40;86.20;;;;;;5037000;28;20382;-48
2022/04/19 08:32:58;;;;;;;8.95;4.53;;;14.50;86.20;;;;;;5032932;28;19924;-49
2022/04/19 08:35:24;;;;;;;8.82;4.90;;;14.60;85.40;;;;;;5024821;28;20088;-49
2022/04/19 08:37:50;;;;;;;5.80;5.07;;;14.60;85.00;;;;;;5038958;28;20033;-48
2022/04/19 08:40:17;;;;;;;6.57;4.78;;;14.70;84.40;;;;;;5037911;28;20040;-48
2022/04/19 08:42:44;;;;;;;5.97;4.00;;;14.70;84.90;;;;;;5030570;28;20075;-49
2022/04/19 08:45:14;;;;;;;5.68;4.45;;;14.70;84.70;;;;;;5024337;28;20525;-48
2022/04/19 08:47:44;;;;;;;6.38;5.03;;;14.70;82.80;;;;;;5027510;28;20398;-48
2022/04/19 08:50:13;;;;;;;9.50;4.38;;;14.80;83.40;;;;;;5028711;28;20437;-48
2022/04/19 08:52:39;;;;;;;7.03;3.80;;;14.80;83.90;;;;;;5041806;28;20397;-48
2022/04/19 08:57:51;;;;;;;7.55;3.63;;;15.00;82.70;;;;;;5040018;28;20037;-49
2022/04/19 09:00:22;;;;;;;7.38;4.20;;;15.00;80.50;;;;;;5026329;28;20036;-49
2022/04/19 09:02:48;;;;;;;4.50;3.45;;;15.00;79.90;;;;;;5033658;28;20084;-49
2022/04/19 09:05:20;;;;;;;5.40;3.47;;;15.10;82.10;;;;;;5027317;28;20410;-49
2022/04/19 09:07:47;;;;;;;6.25;2.90;;;15.10;80.10;;;;;;5020168;28;20475;-48
2022/04/19 09:10:15;;;;;;;3.03;2.70;;;15.20;79.90;;;;;;5030624;28;20088;-48
2022/04/19 09:13:10;;;;;;;5.65;2.30;;;15.20;79.20;;;;;;5024728;28;20416;-49
2022/04/19 09:15:39;;;;;;;4.07;1.63;;;15.20;75.70;;;;;;5036213;28;20094;-49
2022/04/19 09:18:13;;;;;;;2.45;1.85;;;15.40;75.20;;;;;;5021404;28;20049;-49
2022/04/19 09:20:39;;;;;;;1.85;1.60;;;15.40;75.50;;;;;;5033403;28;20124;-49
2022/04/19 09:23:07;;;;;;;3.38;1.08;;;15.40;70.90;;;;;;5027793;28;20121;-48
2022/04/19 09:25:34;;;;;;;2.47;1.92;;;15.50;74.10;;;;;;5031798;28;20041;-50
2022/04/19 09:28:01;;;;;;;1.90;1.65;;;15.50;73.50;;;;;;5038801;28;20295;-49
2022/04/19 09:30:28;;;;;;;2.58;1.60;;;15.60;73.60;;;;;;5043517;28;20048;-49
2022/04/19 09:33:17;;;;;;;6.72;1.38;;;15.70;73.90;;;;;;5033823;28;20037;-49
2022/04/19 09:35:47;;;;;;;1.52;1.17;;;15.80;72.00;;;;;;5028859;28;20053;-49
2022/04/19 09:38:14;;;;;;;1.52;1.10;;;15.90;71.40;;;;;;5031075;28;20116;-49
2022/04/19 09:40:45;;;;;;;2.10;1.42;;;16.00;69.90;;;;;;5036568;28;20068;-49
2022/04/19 09:43:16;;;;;;;4.15;1.55;;;16.00;68.60;;;;;;5028758;28;20041;-48
2022/04/19 09:45:58;;;;;;;2.72;1.60;;;16.00;67.40;;;;;;5032424;28;20068;-50
2022/04/19 09:48:30;;;;;;;2.42;2.20;;;16.00;67.80;;;;;;5034932;28;20487;-48
2022/04/19 09:51:12;;;;;;;3.17;2.22;;;16.10;69.30;;;;;;5038907;28;20064;-49
2022/04/19 09:53:40;;;;;;;2.28;1.17;;;16.10;69.40;;;;;;5038612;28;20029;-48
2022/04/19 09:56:11;;;;;;;2.03;0.95;;;16.20;66.40;;;;;;5041457;28;20584;-49
2022/04/19 09:58:38;;;;;;;2.35;0.63;;;16.30;66.70;;;;;;5033232;28;20034;-49
2022/04/19 10:01:04;;;;;;;2.30;0.75;;;16.40;64.90;;;;;;5030243;28;20043;-53
2022/04/19 10:09:04;;;;;;;3.00;0.90;;;16.40;60.50;;;;;;5042082;28;20049;-49
2022/04/19 10:11:30;;;;;;;1.65;1.23;;;16.40;62.20;;;;;;5044873;28;20472;-48
2022/04/19 10:13:56;;;;;;;4.72;1.42;;;16.30;61.90;;;;;;5048917;28;20040;-49
2022/04/19 10:16:22;;;;;;;1.27;0.90;;;16.20;61.40;;;;;;5046640;28;20410;-49
2022/04/19 10:18:48;;;;;;;2.33;1.02;;;16.30;64.20;;;;;;5047730;28;20049;-48
2022/04/19 10:21:19;;;;;;;5.38;1.35;;;16.40;64.60;;;;;;5046635;28;20045;-51
2022/04/19 10:23:45;;;;;;;2.85;0.80;;;16.40;64.00;;;;;;5043460;28;20033;-53
2022/04/19 10:26:14;;;;;;;3.28;0.75;;;16.40;63.70;;;;;;5041483;28;20110;-53
2022/04/19 10:28:39;;;;;;;1.60;1.08;;;16.40;62.90;;;;;;5048685;28;20067;-51
2022/04/19 10:31:05;;;;;;;1.63;0.85;;;16.50;63.10;;;;;;5044647;28;20041;-53
2022/04/19 10:33:54;;;;;;;0.93;0.55;;;16.50;62.70;;;;;;5047215;28;20509;-52
2022/04/19 10:36:37;;;;;;;2.10;0.77;;;16.50;61.10;;;;;;5032636;28;20045;-52
2022/04/19 10:39:12;;;;;;;1.42;1.17;;;16.60;63.20;;;;;;5028447;28;20459;-51
2022/04/19 10:41:48;;;;;;;1.25;0.93;;;16.60;61.00;;;;;;5034877;28;20075;-53
2022/04/19 10:44:24;;;;;;;;;;;16.60;60.80;;;;;;5054647;28;20419;-52
2022/04/19 10:47:03;;;;;;;1.02;0.60;;;16.50;61.80;;;;;;5029990;28;19925;-51
2022/04/19 10:49:28;;;;;;;1.15;0.60;;;16.60;60.50;;;;;;5027885;28;20483;-54
2022/04/19 10:51:59;;;;;;;0.90;0.68;;;16.50;58.80;;;;;;5046462;28;20068;-51
2022/04/19 10:55:02;;;;;;;1.73;0.70;;;16.60;60.60;;;;;;5046456;28;20036;-51
2022/04/19 11:00:42;;;;;;;4.32;0.50;;;16.70;60.80;;;;;;5042301;28;20497;-50
2022/04/19 11:03:38;;;;;;;0.93;0.50;;;16.80;59.90;;;;;;5045850;28;20410;-48
2022/04/19 11:06:28;;;;;;;3.55;0.60;;;16.70;58.60;;;;;;5040884;28;20124;-48
2022/04/19 11:09:23;;;;;;;3.00;0.52;;;16.70;59.50;;;;;;5036915;28;20115;-48
2022/04/19 11:11:50;;;;;;;1.00;0.50;;;16.80;60.70;;;;;;5031365;28;20064;-48
2022/04/19 11:14:21;;;;;;;3.10;0.50;;;16.80;58.50;;;;;;5034037;28;20107;-48
2022/04/19 11:16:51;;;;;;;2.25;0.43;;;16.80;58.70;;;;;;5044173;28;20067;-49
2022/04/19 11:19:19;;;;;;;4.00;0.35;;;16.90;59.40;;;;;;5029335;28;20433;-47
2022/04/19 11:21:56;;;;;;;0.60;0.40;;;16.90;59.80;;;;;;5026887;28;20030;-49
2022/04/19 11:25:01;;;;;;;0.90;0.63;;;16.90;59.20;;;;;;5030841;28;20631;-48
2022/04/19 11:28:01;;;;;;;2.92;0.60;;;17.00;59.30;;;;;;5036958;28;20068;-49
2022/04/19 11:30:27;;;;;;;3.67;0.50;;;17.00;58.00;;;;;;5026094;28;20025;-49
2022/04/19 11:32:59;;;;;;;5.13;0.80;;;17.10;59.30;;;;;;5030876;28;20051;-50
2022/04/19 11:35:26;;;;;;;3.45;0.82;;;17.00;59.20;;;;;;5024586;28;20316;-48
2022/04/19 11:37:51;;;;;;;3.90;0.68;;;17.10;60.00;;;;;;5030525;28;20288;-48
2022/04/19 11:48:45;;;;;;;0.85;0.30;;;17.20;58.80;;;;;;5025030;28;20055;-48
2022/04/19 11:51:12;;;;;;;1.55;0.40;;;17.20;58.90;;;;;;5042423;28;20112;-49
2022/04/19 11:53:38;;;;;;;4.70;0.68;;;17.20;57.80;;;;;;5033443;28;20041;-48
2022/04/19 11:56:04;;;;;;;;;;;17.10;58.30;;;;;;5042004;28;20041;-49
2022/04/19 11:58:33;;;;;;;1.92;0.52;;;17.20;61.30;;;;;;5041101;28;19924;-48
2022/04/19 12:01:05;;;;;;;9.98;0.40;;;17.30;59.80;;;;;;5026448;28;20116;-48
2022/04/19 12:03:39;;;;;;;0.80;0.32;;;17.30;58.80;;;;;;5043200;28;21011;-48
2022/04/19 12:06:14;;;;;;;0.63;0.40;;;17.30;58.40;;;;;;5037786;28;20032;-49
2022/04/19 12:08:49;;;;;;;0.90;0.30;;;17.40;57.70;;;;;;5040031;28;20406;-49
2022/04/19 12:11:18;;;;;;;1.08;0.50;;;17.40;59.00;;;;;;5033296;28;20426;-49
2022/04/19 12:13:46;;;;;;;23.35;2.60;;;17.50;58.50;;;;;;5045507;28;20044;-48
2022/04/19 12:16:33;;;;;;;0.75;0.60;;;17.50;59.80;;;;;;5034391;28;20041;-48
2022/04/19 12:19:00;;;;;;;8.57;0.75;;;17.70;58.70;;;;;;5034983;28;20033;-48
2022/04/19 12:21:38;;;;;;;4.68;0.95;;;17.70;58.40;;;;;;5031427;28;20467;-49
2022/04/19 12:24:06;;;;;;;1.27;0.90;;;17.70;57.90;;;;;;5031792;28;20151;-49
2022/04/19 12:26:31;;;;;;;1.98;0.45;;;17.60;58.40;;;;;;5034017;28;20044;-49
2022/04/19 12:29:11;;;;;;;3.33;1.08;;;17.60;58.00;;;;;;5035435;28;20033;-49
2022/04/19 12:31:39;;;;;;;4.35;0.43;;;17.60;57.50;;;;;;5027486;28;20073;-49
2022/04/19 12:34:06;;;;;;;4.72;0.90;;;17.60;58.40;;;;;;5030482;28;20041;-49
2022/04/19 12:36:49;;;;;;;2.05;0.60;;;17.70;58.40;;;;;;5038322;28;20037;-49
2022/04/19 12:39:16;;;;;;;1.38;0.50;;;17.70;57.10;;;;;;5035103;28;20034;-50
2022/04/19 12:41:45;;;;;;;6.43;0.47;;;17.70;57.50;;;;;;5037280;28;20036;-49
2022/04/19 12:44:16;;;;;;;1.10;0.60;;;17.70;57.00;;;;;;5041067;28;20164;-50
2022/04/19 12:46:51;;;;;;;0.80;0.50;;;17.80;58.40;;;;;;5029677;28;20346;-49
2022/04/19 12:49:24;;;;;;;4.47;0.60;;;17.90;57.10;;;;;;5027939;28;20134;-50
2022/04/19 12:52:05;;;;;;;2.28;0.43;;;17.90;57.20;;;;;;5033843;28;20071;-48
2022/04/19 12:54:33;;;;;;;3.25;0.57;;;17.90;56.50;;;;;;5037215;28;20037;-48
2022/04/19 12:57:02;;;;;;;2.38;0.75;;;17.90;56.70;;;;;;5041198;28;20056;-49
2022/04/19 12:59:32;;;;;;;3.42;0.80;;;17.90;54.80;;;;;;5043019;28;20029;-49
2022/04/19 13:01:58;;;;;;;3.95;0.70;;;17.90;56.60;;;;;;5031851;28;20402;-49
2022/04/19 13:04:24;;;;;;;3.28;0.52;;;17.90;55.20;;;;;;5031768;28;20047;-49
2022/04/19 13:12:24;;;;;;;2.70;0.73;;;17.90;55.70;;;;;;5040313;28;20037;-49
2022/04/19 13:14:55;;;;;;;2.45;0.60;;;18.00;56.30;;;;;;5038190;28;20045;-49
2022/04/19 13:17:22;;;;;;;7.85;0.90;;;18.10;55.70;;;;;;5026148;28;20433;-49
2022/04/19 13:19:47;;;;;;;5.97;0.73;;;18.10;55.70;;;;;;5036532;28;20044;-48
2022/04/19 13:22:14;;;;;;;2.65;0.60;;;18.20;56.30;;;;;;5028311;28;20044;-49
2022/04/19 13:24:40;;;;;;;1.38;0.55;;;18.20;55.60;;;;;;5030939;28;20037;-48
2022/04/19 13:27:06;;;;;;;;;;;18.30;56.00;;;;;;5036784;28;20498;-48
2022/04/19 13:29:32;;;;;;;1.77;0.57;;;18.30;54.60;;;;;;5014845;28;19921;-48
2022/04/19 13:31:58;;;;;;;1.08;0.50;;;18.30;54.80;;;;;;5033867;28;20449;-49
2022/04/19 13:34:23;;;;;;;2.55;0.60;;;18.20;55.10;;;;;;5027029;28;20050;-49
2022/04/19 13:36:49;;;;;;;2.72;0.50;;;18.20;56.10;;;;;;5024313;28;20205;-49
2022/04/19 13:39:15;;;;;;;2.90;0.68;;;18.30;56.10;;;;;;5032671;28;20044;-49